• Join FlightAware (Why Join?)
  • Login
  • US Flag 
02:35AM EDT


 

Airport Tracker/Info


-or-


 

Live Flight TrackerFlight Track Log ✈ GJS3710 ✈ 13-Oct-2013 ✈ KORD - KALB

Flight Track Log - Related Links

Times and Time Zones

All times are in EDT time to prevent confusion due to time zone crossing. See the GJS3710 flight status page for this flight to view local times or setup timezone preferences in your user account.

Time Position Orientation Groundspeed Altitude Reporting Facility
EDT Latitude Longitude Course Direction KTS MPH feet Rate Location/Type
10:34PM 42.0500 -87.9000 80° East 194 223 3,500  Level Chicago TRACON
10:35PM 42.1167 -87.8667 20° North 236 272 5,800 2,100 Climbing Chicago TRACON
10:36PM 42.0347 -87.4458 66° East  Level Estimated
10:36PM 42.1425 -87.8442 33° Northeast 250 288 6,800  Level Chicago Center
10:37PM 42.0519 -87.2921 66° East  Level Estimated
10:37PM 42.1772 -87.7581 61° Northeast 267 307 9,600  Level Chicago Center
10:38PM 42.0690 -87.1382 86° East  Level Estimated
10:38PM 42.1928 -87.6492 79° East 290 334 12,100  Level Chicago Center
10:39PM 42.1281 -87.0044 59° Northeast  Level FlightAware Approximate
10:39PM 42.2100 -87.5367 78° East 304 350 14,500  Level Chicago Center
10:40PM 42.1437 -86.8554 80° East  Level Estimated
10:40PM 42.2278 -87.4156 79° East 323 372 16,500  Level Chicago Center
10:41PM 42.2475 -87.2867 78° East 347 399 18,000 1,080 Climbing Chicago Center
10:42PM 42.2681 -87.1433 79° East 379 436 18,800 1,140 Climbing Chicago Center
10:43PM 42.2828 -86.9897 83° East 408 470 20,400 1,500 Climbing Chicago Center
10:44PM 42.2875 -86.8317 88° East 420 483 21,900 1,500 Climbing Chicago Center
10:45PM 42.2947 -86.6497 87° East 436 502 23,500 1,380 Climbing Chicago Center
10:46PM 42.3008 -86.4900 87° East 448 516 24,800 1,200 Climbing Chicago Center
10:47PM 42.3072 -86.3217 87° East 452 520 26,000 1,200 Climbing Chicago Center
10:48PM 42.3136 -86.1153 88° East 462 532 27,300 1,140 Climbing Chicago Center
10:49PM 42.3133 -85.9383 90° East 472 543 28,400 1,020 Climbing Chicago Center
10:50PM 42.3111 -85.7578 91° East 483 556 29,400 960 Climbing Chicago Center
10:51PM 42.3089 -85.5742 91° East 489 563 30,400 960 Climbing Chicago Center
10:52PM 42.3069 -85.3911 91° East 491 565 31,400 1,080 Climbing Chicago Center
10:53PM 42.3039 -85.2078 91° East 491 565 32,600 1,080 Climbing Chicago Center
10:54PM 42.3006 -85.0258 91° East 489 563 33,700 1,020 Climbing Chicago Center
10:55PM 42.2964 -84.8467 92° East 482 555 34,700 960 Climbing Chicago Center
10:56PM 42.2917 -84.6672 92° East 481 554 35,700 960 Climbing Chicago Center
10:57PM 42.2878 -84.4906 92° East 475 547 36,700 900 Climbing Chicago Center
10:58PM 42.3108 -84.3014 81° East 473 544 37,500 780 Climbing Cleveland Center
10:59PM 42.3347 -84.1319 79° East 463 533 38,300 600 Climbing Cleveland Center
11:00PM 42.3581 -83.9619 79° East 459 528 38,800 300 Climbing Cleveland Center
11:01PM 42.3811 -83.7914 80° East 460 529 39,000 60 Climbing Cleveland Center
11:02PM 42.4047 -83.6164 80° East 466 536 39,000  Level Cleveland Center
11:03PM 42.4142 -83.4400 86° East 477 549 39,000  Level Cleveland Center
11:04PM 42.4197 -83.2558 88° East 484 557 39,000  Level Cleveland Center
11:05PM 42.4261 -83.0617 87° East 486 559 39,000  Level Cleveland Center
11:06PM 42.4319 -82.8775 87° East 488 562 39,000  Level Cleveland Center
11:07PM 42.4375 -82.6922 88° East 493 567 39,000  Level Cleveland Center
11:08PM 42.4433 -82.5081 87° East 491 565 39,000  Level Cleveland Center
11:09PM 42.4483 -82.3236 88° East 491 565 39,000  Level Cleveland Center
11:10PM 42.4536 -82.1397 88° East 488 562 39,000  Level Cleveland Center
11:11PM 42.4578 -81.9600 88° East 485 558 39,000  Level Cleveland Center
11:12PM 42.4622 -81.7750 88° East 478 550 39,000  Level Cleveland Center
11:13PM 42.4653 -81.5947 89° East 475 547 39,000  Level Cleveland Center
11:14PM 42.4689 -81.4147 88° East 472 543 39,000  Level Cleveland Center
11:15PM 42.4728 -81.2367 88° East 471 542 39,000  Level Cleveland Center
11:16PM 42.4756 -81.0586 89° East 469 540 39,000  Level Cleveland Center
11:17PM 42.4778 -80.8814 89° East 467 537 39,000  Level Cleveland Center
11:18PM 42.4800 -80.7044 89° East 466 536 39,000  Level Cleveland Center
11:19PM 42.4831 -80.5294 89° East 462 532 39,000  Level Cleveland Center
11:20PM 42.4842 -80.3517 89° East 465 535 39,000  Level Cleveland Center
11:21PM 42.4867 -80.1744 89° East 466 536 39,000  Level Cleveland Center
11:22PM 42.4875 -79.9761 90° East 468 539 39,000  Level Cleveland Center
11:23PM 42.4886 -79.8300 89° East 464 534 39,000  Level Cleveland Center
11:24PM 42.4892 -79.6208 90° East 465 535 39,000  Level Cleveland Center
11:25PM 42.4908 -79.4472 89° East 463 533 39,000  Level Cleveland Center
11:26PM 42.4897 -79.2736 90° East 463 533 39,000  Level Cleveland Center
11:27PM 42.5019 -79.1019 84° East 462 532 39,000  Level Cleveland Center
11:28PM 42.5142 -78.9300 84° East 461 531 39,000  Level Cleveland Center
11:29PM 42.5258 -78.7575 85° East 460 529 39,000  Level Cleveland Center
11:30PM 42.5361 -78.5872 85° East 456 525 39,000  Level Cleveland Center
11:31PM 42.5489 -78.4181 84° East 452 520 39,000  Level Cleveland Center
11:32PM 42.5592 -78.2461 85° East 456 525 39,000  Level Cleveland Center
11:33PM 42.5697 -78.0736 85° East 460 529 39,000  Level Cleveland Center
11:34PM 42.5794 -77.9006 86° East 462 532 39,000 -600 Level Cleveland Center
11:35PM 42.5903 -77.7222 85° East 470 541 37,900 -1,080 Descending Cleveland Center
11:36PM 42.6000 -77.5383 86° East 485 558 36,900 -1,020 Descending Cleveland Center
11:37PM 42.6122 -77.3333 85° East 489 563 35,900 -1,020 Descending Cleveland Center
11:38PM 42.6219 -77.1494 86° East 491 565 34,900 -960 Descending Cleveland Center
11:40PM 42.6314 -76.9589 86° East 485 558 33,900 -1,020 Descending Boston Center
11:41PM 42.6428 -76.7792 85° East 474 545 32,900 -1,200 Descending Boston Center
11:42PM 42.6494 -76.6017 87° East 474 545 31,600 -1,620 Descending Boston Center
11:43PM 42.6581 -76.4186 86° East 474 545 29,700 -1,860 Descending Boston Center
11:44PM 42.6683 -76.2414 85° East 474 545 28,000 -1,920 Descending Boston Center
11:45PM 42.6742 -76.0636 87° East 474 545 26,000 -1,920 Descending Boston Center
11:46PM 42.6814 -75.8917 87° East 468 539 24,200 -1,800 Descending Boston Center
11:47PM 42.6886 -75.7253 87° East 456 525 22,400 -1,800 Descending Boston Center
11:48PM 42.6931 -75.5644 88° East 432 497 20,600 -1,860 Descending Boston Center
11:49PM 42.7014 -75.4094 86° East 419 482 18,800 -1,620 Descending Boston Center
11:50PM 42.7072 -75.2572 87° East 414 476 17,500 -1,440 Descending Boston Center
11:51PM 42.7108 -75.1106 88° East 395 455 16,000 -1,500 Descending Boston Center
11:52PM 42.7142 -74.9692 88° East 381 438 14,500 -1,560 Descending Boston Center
11:52PM 42.7150 -74.9242 89° East 371 427 14,000 -1,800 Descending Boston Center
11:52PM 42.7153 -74.9100 88° East 369 425 13,800 -1,320 Descending Boston Center
11:53PM 42.7211 -74.8339 84° East 370 426 13,100 -1,200 Descending Boston Center
11:53PM 42.7181 -74.7772 94° East 351 404 12,600 -1,020 Descending Boston Center
11:54PM 42.7219 -74.6983 86° East 355 409 12,100 -1,020 Descending Boston Center
11:54PM 42.7250 -74.6503 85° East 339 390 11,600 -1,140 Descending Boston Center
11:55PM 42.7264 -74.5683 89° East 348 400 11,000 -600 Descending Boston Center
11:55PM 42.7294 -74.5175 85° East 344 396 11,000 -120 Level Boston Center
11:56PM 42.7328 -74.4442 86° East 343 395 10,900 -840 Descending Boston Center
11:56PM 42.7419 -74.4050 72° East 301 346 10,200 -1,560 Descending Boston Center
11:57PM 42.7514 -74.3375 79° East 302 348 9,400 -1,560 Descending Boston Center
11:57PM 42.7606 -74.2894 75° East 274 315 8,700 -1,320 Descending Boston Center
11:58PM 42.7675 -74.2389 79° East 276 318 8,100 -1,380 Descending Boston Center
11:58PM 42.7767 -74.1911 75° East 263 303 7,300 -1,500 Descending Boston Center
11:59PM 42.7858 -74.1403 76° East 264 304 6,600 -1,380 Descending Boston Center
11:59PM 42.7928 -74.0925 79° East 267 307 5,900 -1,140 Descending Boston Center
12:00AM 42.8017 -74.0558 72° East 259 298 5,500 -1,020 Descending Boston Center
12:00AM 42.8086 -73.9994 80° East 252 290 4,900 -1,020 Descending Boston Center
12:01AM 42.8153 -73.9658 75° East 253 291 4,500 -1,020 Descending Boston Center
12:01AM 42.8347 -73.9264 56° Northeast 210 242 3,900 -900 Descending Boston Center
12:02AM 42.8517 -73.9069 40° Northeast 227 261 3,600 -1,020 Descending Boston Center
12:02AM 42.8769 -73.8822 36° Northeast 186 214 2,900 -1,260 Descending Boston Center
12:03AM 42.8794 -73.8483 84° East 176 203 2,400 -1,020 Descending Boston Center
12:03AM 42.8692 -73.8281 125° Southeast 163 188 1,900 -540 Descending Boston Center
12:04AM 42.8758 -73.8000 72° East 143 165 1,900 -300 Level Boston Center
12:04AM 42.8319 -73.8133 193° South 126 145 1,600 -480 Descending Boston Center
12:05AM 42.7986 -73.8097 175° South 113 130 1,200 -600 Descending Boston Center
12:06AM 42.7611 -73.8089 179° South 127 146 400 -840 Descending Boston Center